Aviation Digital Data Service (ADDS)

Output produced by METARs form (0332 UTC 18 June 2019)
found at http://www.aviationweather.gov/metar/data/
 
METAR text: TBPB 180300Z 09021KT 9999 SCT020 BKN040 28/23 Q1016 NOSIG
Conditions at: TBPB (GRANTLEY ADAMS , BB) observed 0300 UTC 18 June 2019
Temperature: 28.0°C (82°F)
Dewpoint: 23.0°C (73°F) [RH = 74%]
Pressure (altimeter): 30.00 inches Hg (1016.0 mb)
Winds: from the E (90 degrees) at 24 MPH (21 knots; 10.8 m/s)
Visibility: 6 or more miles (10+ km)
Ceiling: 4000 feet AGL
Clouds: scattered clouds at 2000 feet AGL
broken clouds at 4000 feet AGL
Weather: no significant weather observed at this time

METAR text: TBPB 180200Z 09022KT 9999 SCT020 28/24 Q1016 NOSIG
Conditions at: TBPB (GRANTLEY ADAMS , BB) observed 0200 UTC 18 June 2019
Temperature: 28.0°C (82°F)
Dewpoint: 24.0°C (75°F) [RH = 79%]
Pressure (altimeter): 30.00 inches Hg (1016.0 mb)
Winds: from the E (90 degrees) at 25 MPH (22 knots; 11.3 m/s)
Visibility: 6 or more miles (10+ km)
Ceiling: at least 12,000 feet AGL
Clouds: scattered clouds at 2000 feet AGL
Weather: no significant weather observed at this time

METAR text: TBPB 180100Z 09020KT 9999 FEW020 28/23 Q1016 NOSIG
Conditions at: TBPB (GRANTLEY ADAMS , BB) observed 0100 UTC 18 June 2019
Temperature: 28.0°C (82°F)
Dewpoint: 23.0°C (73°F) [RH = 74%]
Pressure (altimeter): 30.00 inches Hg (1016.0 mb)
Winds: from the E (90 degrees) at 23 MPH (20 knots; 10.3 m/s)
Visibility: 6 or more miles (10+ km)
Ceiling: at least 12,000 feet AGL
Clouds: few clouds at 2000 feet AGL
Weather: no significant weather observed at this time

METAR text: TBPB 180000Z 09018KT 9999 SCT020 28/24 Q1016 NOSIG
Conditions at: TBPB (GRANTLEY ADAMS , BB) observed 0000 UTC 18 June 2019
Temperature: 28.0°C (82°F)
Dewpoint: 24.0°C (75°F) [RH = 79%]
Pressure (altimeter): 30.00 inches Hg (1016.0 mb)
Winds: from the E (90 degrees) at 21 MPH (18 knots; 9.3 m/s)
Visibility: 6 or more miles (10+ km)
Ceiling: at least 12,000 feet AGL
Clouds: scattered clouds at 2000 feet AGL
Weather: no significant weather observed at this time

METAR text: TBPB 172300Z 08019KT 9999 FEW020 28/24 Q1015 NOSIG
Conditions at: TBPB (GRANTLEY ADAMS , BB) observed 2300 UTC 17 June 2019
Temperature: 28.0°C (82°F)
Dewpoint: 24.0°C (75°F) [RH = 79%]
Pressure (altimeter): 29.97 inches Hg (1015.0 mb)
Winds: from the E (80 degrees) at 22 MPH (19 knots; 9.8 m/s)
Visibility: 6 or more miles (10+ km)
Ceiling: at least 12,000 feet AGL
Clouds: few clouds at 2000 feet AGL
Weather: no significant weather observed at this time

METAR text: TBPB 172200Z 09017KT 9999 SCT020 28/24 Q1015 NOSIG
Conditions at: TBPB (GRANTLEY ADAMS , BB) observed 2200 UTC 17 June 2019
Temperature: 28.0°C (82°F)
Dewpoint: 24.0°C (75°F) [RH = 79%]
Pressure (altimeter): 29.97 inches Hg (1015.0 mb)
Winds: from the E (90 degrees) at 20 MPH (17 knots; 8.7 m/s)
Visibility: 6 or more miles (10+ km)
Ceiling: at least 12,000 feet AGL
Clouds: scattered clouds at 2000 feet AGL
Weather: no significant weather observed at this time

METAR text: TBPB 172100Z 09020KT 9999 SCT020 29/24 Q1015 NOSIG
Conditions at: TBPB (GRANTLEY ADAMS , BB) observed 2100 UTC 17 June 2019
Temperature: 29.0°C (84°F)
Dewpoint: 24.0°C (75°F) [RH = 74%]
Pressure (altimeter): 29.97 inches Hg (1015.0 mb)
Winds: from the E (90 degrees) at 23 MPH (20 knots; 10.3 m/s)
Visibility: 6 or more miles (10+ km)
Ceiling: at least 12,000 feet AGL
Clouds: scattered clouds at 2000 feet AGL
Weather: no significant weather observed at this time

METAR text: TBPB 172000Z 09018KT 9999 FEW020 29/24 Q1015 NOSIG
Conditions at: TBPB (GRANTLEY ADAMS , BB) observed 2000 UTC 17 June 2019
Temperature: 29.0°C (84°F)
Dewpoint: 24.0°C (75°F) [RH = 74%]
Pressure (altimeter): 29.97 inches Hg (1015.0 mb)
Winds: from the E (90 degrees) at 21 MPH (18 knots; 9.3 m/s)
Visibility: 6 or more miles (10+ km)
Ceiling: at least 12,000 feet AGL
Clouds: few clouds at 2000 feet AGL
Weather: no significant weather observed at this time

METAR text: TBPB 171900Z 09019KT 8000 SCT020 29/24 Q1015 NOSIG
Conditions at: TBPB (GRANTLEY ADAMS , BB) observed 1900 UTC 17 June 2019
Temperature: 29.0°C (84°F)
Dewpoint: 24.0°C (75°F) [RH = 74%]
Pressure (altimeter): 29.97 inches Hg (1015.0 mb)
Winds: from the E (90 degrees) at 22 MPH (19 knots; 9.8 m/s)
Visibility: 5 miles ( 8 km)
Ceiling: at least 12,000 feet AGL
Clouds: scattered clouds at 2000 feet AGL
Weather: no significant weather observed at this time

METAR text: TBPB 171800Z 09021KT 8000 FEW020 30/24 Q1015 NOSIG
Conditions at: TBPB (GRANTLEY ADAMS , BB) observed 1800 UTC 17 June 2019
Temperature: 30.0°C (86°F)
Dewpoint: 24.0°C (75°F) [RH = 70%]
Pressure (altimeter): 29.97 inches Hg (1015.0 mb)
Winds: from the E (90 degrees) at 24 MPH (21 knots; 10.8 m/s)
Visibility: 5 miles ( 8 km)
Ceiling: at least 12,000 feet AGL
Clouds: few clouds at 2000 feet AGL
Weather: no significant weather observed at this time

METAR text: TBPB 171700Z 09022KT 8000 FEW022 30/23 Q1016 NOSIG
Conditions at: TBPB (GRANTLEY ADAMS , BB) observed 1700 UTC 17 June 2019
Temperature: 30.0°C (86°F)
Dewpoint: 23.0°C (73°F) [RH = 66%]
Pressure (altimeter): 30.00 inches Hg (1016.0 mb)
Winds: from the E (90 degrees) at 25 MPH (22 knots; 11.3 m/s)
Visibility: 5 miles ( 8 km)
Ceiling: at least 12,000 feet AGL
Clouds: few clouds at 2200 feet AGL
Weather: no significant weather observed at this time

METAR text: TBPB 171600Z 09025KT 8000 FEW024 30/23 Q1017 NOSIG
Conditions at: TBPB (GRANTLEY ADAMS , BB) observed 1600 UTC 17 June 2019
Temperature: 30.0°C (86°F)
Dewpoint: 23.0°C (73°F) [RH = 66%]
Pressure (altimeter): 30.03 inches Hg (1017.0 mb)
Winds: from the E (90 degrees) at 29 MPH (25 knots; 12.9 m/s)
Visibility: 5 miles ( 8 km)
Ceiling: at least 12,000 feet AGL
Clouds: few clouds at 2400 feet AGL
Weather: no significant weather observed at this time

METAR text: TBPB 171500Z 10026KT 8000 FEW024 31/24 Q1017 NOSIG
Conditions at: TBPB (GRANTLEY ADAMS , BB) observed 1500 UTC 17 June 2019
Temperature: 31.0°C (88°F)
Dewpoint: 24.0°C (75°F) [RH = 66%]
Pressure (altimeter): 30.03 inches Hg (1017.0 mb)
Winds: from the E (100 degrees) at 30 MPH (26 knots; 13.4 m/s)
Visibility: 5 miles ( 8 km)
Ceiling: at least 12,000 feet AGL
Clouds: few clouds at 2400 feet AGL
Weather: no significant weather observed at this time

METAR text: TBPB 171400Z 10026KT 8000 FEW024 31/24 Q1017 NOSIG
Conditions at: TBPB (GRANTLEY ADAMS , BB) observed 1400 UTC 17 June 2019
Temperature: 31.0°C (88°F)
Dewpoint: 24.0°C (75°F) [RH = 66%]
Pressure (altimeter): 30.03 inches Hg (1017.0 mb)
Winds: from the E (100 degrees) at 30 MPH (26 knots; 13.4 m/s)
Visibility: 5 miles ( 8 km)
Ceiling: at least 12,000 feet AGL
Clouds: few clouds at 2400 feet AGL
Weather: no significant weather observed at this time

METAR text: TBPB 171300Z 10026KT 9999 FEW024 31/24 Q1017 NOSIG
Conditions at: TBPB (GRANTLEY ADAMS , BB) observed 1300 UTC 17 June 2019
Temperature: 31.0°C (88°F)
Dewpoint: 24.0°C (75°F) [RH = 66%]
Pressure (altimeter): 30.03 inches Hg (1017.0 mb)
Winds: from the E (100 degrees) at 30 MPH (26 knots; 13.4 m/s)
Visibility: 6 or more miles (10+ km)
Ceiling: at least 12,000 feet AGL
Clouds: few clouds at 2400 feet AGL
Weather: no significant weather observed at this time

METAR text: TBPB 171200Z 09023KT 9999 FEW024 30/23 Q1016 NOSIG
Conditions at: TBPB (GRANTLEY ADAMS , BB) observed 1200 UTC 17 June 2019
Temperature: 30.0°C (86°F)
Dewpoint: 23.0°C (73°F) [RH = 66%]
Pressure (altimeter): 30.00 inches Hg (1016.0 mb)
Winds: from the E (90 degrees) at 26 MPH (23 knots; 11.8 m/s)
Visibility: 6 or more miles (10+ km)
Ceiling: at least 12,000 feet AGL
Clouds: few clouds at 2400 feet AGL
Weather: no significant weather observed at this time

METAR text: TBPB 171100Z 09022KT 9999 FEW026 29/23 Q1016 NOSIG
Conditions at: TBPB (GRANTLEY ADAMS , BB) observed 1100 UTC 17 June 2019
Temperature: 29.0°C (84°F)
Dewpoint: 23.0°C (73°F) [RH = 70%]
Pressure (altimeter): 30.00 inches Hg (1016.0 mb)
Winds: from the E (90 degrees) at 25 MPH (22 knots; 11.3 m/s)
Visibility: 6 or more miles (10+ km)
Ceiling: at least 12,000 feet AGL
Clouds: few clouds at 2600 feet AGL
Weather: no significant weather observed at this time

METAR text: TBPB 171000Z 09020KT 9999 FEW024 28/23 Q1015 NOSIG
Conditions at: TBPB (GRANTLEY ADAMS , BB) observed 1000 UTC 17 June 2019
Temperature: 28.0°C (82°F)
Dewpoint: 23.0°C (73°F) [RH = 74%]
Pressure (altimeter): 29.97 inches Hg (1015.0 mb)
Winds: from the E (90 degrees) at 23 MPH (20 knots; 10.3 m/s)
Visibility: 6 or more miles (10+ km)
Ceiling: at least 12,000 feet AGL
Clouds: few clouds at 2400 feet AGL
Weather: no significant weather observed at this time

METAR text: TBPB 170900Z 09019KT 9999 FEW024 SCT036 28/24 Q1015 NOSIG
Conditions at: TBPB (GRANTLEY ADAMS , BB) observed 0900 UTC 17 June 2019
Temperature: 28.0°C (82°F)
Dewpoint: 24.0°C (75°F) [RH = 79%]
Pressure (altimeter): 29.97 inches Hg (1015.0 mb)
Winds: from the E (90 degrees) at 22 MPH (19 knots; 9.8 m/s)
Visibility: 6 or more miles (10+ km)
Ceiling: at least 12,000 feet AGL
Clouds: few clouds at 2400 feet AGL
scattered clouds at 3600 feet AGL
Weather: no significant weather observed at this time

METAR text: TBPB 170800Z 09019KT 9999 SCT020 28/24 Q1014 NOSIG
Conditions at: TBPB (GRANTLEY ADAMS , BB) observed 0800 UTC 17 June 2019
Temperature: 28.0°C (82°F)
Dewpoint: 24.0°C (75°F) [RH = 79%]
Pressure (altimeter): 29.94 inches Hg (1014.0 mb)
Winds: from the E (90 degrees) at 22 MPH (19 knots; 9.8 m/s)
Visibility: 6 or more miles (10+ km)
Ceiling: at least 12,000 feet AGL
Clouds: scattered clouds at 2000 feet AGL
Weather: no significant weather observed at this time

METAR text: TBPB 170700Z 08018KT 9999 FEW020 28/24 Q1014 NOSIG
Conditions at: TBPB (GRANTLEY ADAMS , BB) observed 0700 UTC 17 June 2019
Temperature: 28.0°C (82°F)
Dewpoint: 24.0°C (75°F) [RH = 79%]
Pressure (altimeter): 29.94 inches Hg (1014.0 mb)
Winds: from the E (80 degrees) at 21 MPH (18 knots; 9.3 m/s)
Visibility: 6 or more miles (10+ km)
Ceiling: at least 12,000 feet AGL
Clouds: few clouds at 2000 feet AGL
Weather: no significant weather observed at this time

METAR text: TBPB 170600Z 09018KT 9999 FEW020 28/23 Q1014 NOSIG
Conditions at: TBPB (GRANTLEY ADAMS , BB) observed 0600 UTC 17 June 2019
Temperature: 28.0°C (82°F)
Dewpoint: 23.0°C (73°F) [RH = 74%]
Pressure (altimeter): 29.94 inches Hg (1014.0 mb)
Winds: from the E (90 degrees) at 21 MPH (18 knots; 9.3 m/s)
Visibility: 6 or more miles (10+ km)
Ceiling: at least 12,000 feet AGL
Clouds: few clouds at 2000 feet AGL
Weather: no significant weather observed at this time

METAR text: TBPB 170500Z 09019KT 9999 FEW020 28/23 Q1015 NOSIG
Conditions at: TBPB (GRANTLEY ADAMS , BB) observed 0500 UTC 17 June 2019
Temperature: 28.0°C (82°F)
Dewpoint: 23.0°C (73°F) [RH = 74%]
Pressure (altimeter): 29.97 inches Hg (1015.0 mb)
Winds: from the E (90 degrees) at 22 MPH (19 knots; 9.8 m/s)
Visibility: 6 or more miles (10+ km)
Ceiling: at least 12,000 feet AGL
Clouds: few clouds at 2000 feet AGL
Weather: no significant weather observed at this time

METAR text: TBPB 170400Z 09020KT 9999 FEW020 28/23 Q1015 NOSIG
Conditions at: TBPB (GRANTLEY ADAMS , BB) observed 0400 UTC 17 June 2019
Temperature: 28.0°C (82°F)
Dewpoint: 23.0°C (73°F) [RH = 74%]
Pressure (altimeter): 29.97 inches Hg (1015.0 mb)
Winds: from the E (90 degrees) at 23 MPH (20 knots; 10.3 m/s)
Visibility: 6 or more miles (10+ km)
Ceiling: at least 12,000 feet AGL
Clouds: few clouds at 2000 feet AGL
Weather: no significant weather observed at this time

METAR text: TBPB 170300Z COR 09018KT 9999 FEW020 28/24 Q1016 NOSIG
Conditions at: TBPB (GRANTLEY ADAMS , BB) observed 0300 UTC 17 June 2019
Temperature: 28.0°C (82°F)
Dewpoint: 24.0°C (75°F) [RH = 79%]
Pressure (altimeter): 30.00 inches Hg (1016.0 mb)
Winds: from the E (90 degrees) at 21 MPH (18 knots; 9.3 m/s)
Visibility: 6 or more miles (10+ km)
Ceiling: at least 12,000 feet AGL
Clouds: few clouds at 2000 feet AGL
Weather: no significant weather observed at this time

METAR text: TBPB 170200Z 10018KT 9999 SCT020 28/24 Q1016 NOSIG
Conditions at: TBPB (GRANTLEY ADAMS , BB) observed 0200 UTC 17 June 2019
Temperature: 28.0°C (82°F)
Dewpoint: 24.0°C (75°F) [RH = 79%]
Pressure (altimeter): 30.00 inches Hg (1016.0 mb)
Winds: from the E (100 degrees) at 21 MPH (18 knots; 9.3 m/s)
Visibility: 6 or more miles (10+ km)
Ceiling: at least 12,000 feet AGL
Clouds: scattered clouds at 2000 feet AGL
Weather: no significant weather observed at this time

METAR text: TBPB 170100Z 10017KT 9999 SCT020 28/24 Q1016 NOSIG
Conditions at: TBPB (GRANTLEY ADAMS , BB) observed 0100 UTC 17 June 2019
Temperature: 28.0°C (82°F)
Dewpoint: 24.0°C (75°F) [RH = 79%]
Pressure (altimeter): 30.00 inches Hg (1016.0 mb)
Winds: from the E (100 degrees) at 20 MPH (17 knots; 8.7 m/s)
Visibility: 6 or more miles (10+ km)
Ceiling: at least 12,000 feet AGL
Clouds: scattered clouds at 2000 feet AGL
Weather: no significant weather observed at this time

METAR text: TBPB 160000Z 10019KT 9999 SCT020 28/24 Q1015 NOSIG
Conditions at: TBPB (GRANTLEY ADAMS , BB) observed 0000 UTC 17 June 2019
Temperature: 28.0°C (82°F)
Dewpoint: 24.0°C (75°F) [RH = 79%]
Pressure (altimeter): 29.97 inches Hg (1015.0 mb)
Winds: from the E (100 degrees) at 22 MPH (19 knots; 9.8 m/s)
Visibility: 6 or more miles (10+ km)
Ceiling: at least 12,000 feet AGL
Clouds: scattered clouds at 2000 feet AGL
Weather: no significant weather observed at this time

METAR text: TBPB 162300Z 10020KT 9999 FEW020 28/24 Q1015 NOSIG
Conditions at: TBPB (GRANTLEY ADAMS , BB) observed 2300 UTC 16 June 2019
Temperature: 28.0°C (82°F)
Dewpoint: 24.0°C (75°F) [RH = 79%]
Pressure (altimeter): 29.97 inches Hg (1015.0 mb)
Winds: from the E (100 degrees) at 23 MPH (20 knots; 10.3 m/s)
Visibility: 6 or more miles (10+ km)
Ceiling: at least 12,000 feet AGL
Clouds: few clouds at 2000 feet AGL
Weather: no significant weather observed at this time

METAR text: TBPB 162200Z 10019KT 9999 SCT020 SCT036 28/24 Q1014 NOSIG
Conditions at: TBPB (GRANTLEY ADAMS , BB) observed 2200 UTC 16 June 2019
Temperature: 28.0°C (82°F)
Dewpoint: 24.0°C (75°F) [RH = 79%]
Pressure (altimeter): 29.94 inches Hg (1014.0 mb)
Winds: from the E (100 degrees) at 22 MPH (19 knots; 9.8 m/s)
Visibility: 6 or more miles (10+ km)
Ceiling: at least 12,000 feet AGL
Clouds: scattered clouds at 2000 feet AGL
scattered clouds at 3600 feet AGL
Weather: no significant weather observed at this time

METAR text: TBPB 162100Z 10019KT 9999 FEW020 29/24 Q1014 NOSIG
Conditions at: TBPB (GRANTLEY ADAMS , BB) observed 2100 UTC 16 June 2019
Temperature: 29.0°C (84°F)
Dewpoint: 24.0°C (75°F) [RH = 74%]
Pressure (altimeter): 29.94 inches Hg (1014.0 mb)
Winds: from the E (100 degrees) at 22 MPH (19 knots; 9.8 m/s)
Visibility: 6 or more miles (10+ km)
Ceiling: at least 12,000 feet AGL
Clouds: few clouds at 2000 feet AGL
Weather: no significant weather observed at this time

METAR text: TBPB 162000Z 10016KT 9999 FEW020 30/24 Q1014 NOSIG
Conditions at: TBPB (GRANTLEY ADAMS , BB) observed 2000 UTC 16 June 2019
Temperature: 30.0°C (86°F)
Dewpoint: 24.0°C (75°F) [RH = 70%]
Pressure (altimeter): 29.94 inches Hg (1014.0 mb)
Winds: from the E (100 degrees) at 18 MPH (16 knots; 8.2 m/s)
Visibility: 6 or more miles (10+ km)
Ceiling: at least 12,000 feet AGL
Clouds: few clouds at 2000 feet AGL
Weather: no significant weather observed at this time

METAR text: TBPB 161900Z 10017KT 9999 FEW018 31/24 Q1014 NOSIG
Conditions at: TBPB (GRANTLEY ADAMS , BB) observed 1900 UTC 16 June 2019
Temperature: 31.0°C (88°F)
Dewpoint: 24.0°C (75°F) [RH = 66%]
Pressure (altimeter): 29.94 inches Hg (1014.0 mb)
Winds: from the E (100 degrees) at 20 MPH (17 knots; 8.7 m/s)
Visibility: 6 or more miles (10+ km)
Ceiling: at least 12,000 feet AGL
Clouds: few clouds at 1800 feet AGL
Weather: no significant weather observed at this time

METAR text: TBPB 161800Z 11018KT 9999 VCSH SCT016 31/25 Q1014 NOSIG
Conditions at: TBPB (GRANTLEY ADAMS , BB) observed 1800 UTC 16 June 2019
Temperature: 31.0°C (88°F)
Dewpoint: 25.0°C (77°F) [RH = 71%]
Pressure (altimeter): 29.94 inches Hg (1014.0 mb)
Winds: from the ESE (110 degrees) at 21 MPH (18 knots; 9.3 m/s)
Visibility: 6 or more miles (10+ km)
Ceiling: at least 12,000 feet AGL
Clouds: scattered clouds at 1600 feet AGL
Weather: VCSH  (showers in vicinity)

METAR text: TBPB 161700Z 10018KT 9999 SCT016 30/25 Q1015 NOSIG
Conditions at: TBPB (GRANTLEY ADAMS , BB) observed 1700 UTC 16 June 2019
Temperature: 30.0°C (86°F)
Dewpoint: 25.0°C (77°F) [RH = 75%]
Pressure (altimeter): 29.97 inches Hg (1015.0 mb)
Winds: from the E (100 degrees) at 21 MPH (18 knots; 9.3 m/s)
Visibility: 6 or more miles (10+ km)
Ceiling: at least 12,000 feet AGL
Clouds: scattered clouds at 1600 feet AGL
Weather: no significant weather observed at this time

METAR text: TBPB 161600Z 10016KT 9999 VCSH BKN016 30/25 Q1016 NOSIG
Conditions at: TBPB (GRANTLEY ADAMS , BB) observed 1600 UTC 16 June 2019
Temperature: 30.0°C (86°F)
Dewpoint: 25.0°C (77°F) [RH = 75%]
Pressure (altimeter): 30.00 inches Hg (1016.0 mb)
Winds: from the E (100 degrees) at 18 MPH (16 knots; 8.2 m/s)
Visibility: 6 or more miles (10+ km)
Ceiling: 1600 feet AGL
Clouds: broken clouds at 1600 feet AGL
Weather: VCSH  (showers in vicinity)

Forecast for: TBPB (GRANTLEY ADAMS , BB)
Text: TAF TBPB 172300Z 1800/1824 09020KT 7000 SCT020
Forecast period: 0000 UTC 18 June 2019 to 0000 UTC 19 June 2019
Forecast type: FROM: standard forecast or significant change
Winds: from the E (90 degrees) at 23 MPH (20 knots; 10.3 m/s)
Visibility: 4 miles (7 km)
Ceiling: at least 12,000 feet AGL
Clouds: scattered clouds at 2000 feet AGL
Weather: no significant weather forecast for this period